AAL256 KEYW-KDCA
Flight info
| Callsign | AAL256 |
|---|---|
| Flight time | 2h 28m |
| Altitude | 36000 |
| Route | BUFTT1 MATLK Q87 ZERBO/N0458F370 Q87 RAYVO Q113 AARNN WAVES CAPSS4 |
| Aircraft | A319/M-SDE3FGHIRWY/LB1 |
Departure
| Time | 2026-05-05 18:49 |
|---|---|
| Airport | Key West International Airport (KEYW) |
Arrival
| Time | 2026-05-05 21:17 |
|---|---|
| Airport | Ronald Reagan Washington National Airport (KDCA) |
| Time | Latitude | Longitude | Altitude | Speed | Heading |
|---|---|---|---|---|---|
| 2026-05-05 18:30 | 24.55437 | -81.75501 | 12 ft | 0 kts | 180° |
| 2026-05-05 18:39 | 24.55447 | -81.75501 | 14 ft | 3 kts | 184° |
| 2026-05-05 18:39 | 24.55469 | -81.75497 | 15 ft | 3 kts | 206° |
| 2026-05-05 18:40 | 24.55486 | -81.75483 | 12 ft | 3 kts | 246° |
| 2026-05-05 18:40 | 24.55489 | -81.75470 | 12 ft | 1 kts | 269° |
| 2026-05-05 18:40 | 24.55489 | -81.75467 | 12 ft | 0 kts | 269° |
| 2026-05-05 18:42 | 24.55489 | -81.75469 | 12 ft | 1 kts | 269° |
| 2026-05-05 18:42 | 24.55489 | -81.75482 | 12 ft | 3 kts | 269° |
| 2026-05-05 18:43 | 24.55490 | -81.75511 | 14 ft | 4 kts | 284° |
| 2026-05-05 18:43 | 24.55519 | -81.75520 | 12 ft | 5 kts | 14° |
| 2026-05-05 18:43 | 24.55530 | -81.75489 | 12 ft | 5 kts | 85° |
| 2026-05-05 18:43 | 24.55532 | -81.75447 | 12 ft | 6 kts | 89° |
| 2026-05-05 18:44 | 24.55533 | -81.75392 | 13 ft | 8 kts | 89° |
| 2026-05-05 18:44 | 24.55533 | -81.75320 | 12 ft | 10 kts | 90° |
| 2026-05-05 18:44 | 24.55533 | -81.75278 | 12 ft | 1 kts | 88° |
| 2026-05-05 18:44 | 24.55533 | -81.75277 | 12 ft | 0 kts | 88° |
| 2026-05-05 18:46 | 24.55534 | -81.75268 | 12 ft | 2 kts | 88° |
| 2026-05-05 18:47 | 24.55538 | -81.75252 | 12 ft | 2 kts | 64° |
| 2026-05-05 18:47 | 24.55556 | -81.75240 | 13 ft | 4 kts | 15° |
| 2026-05-05 18:47 | 24.55596 | -81.75240 | 13 ft | 7 kts | 1° |
| 2026-05-05 18:47 | 24.55619 | -81.75257 | 13 ft | 2 kts | 270° |
| 2026-05-05 18:48 | 24.55619 | -81.75258 | 13 ft | 0 kts | 270° |
| 2026-05-05 18:48 | 24.55619 | -81.75267 | 13 ft | 13 kts | 270° |
| 2026-05-05 18:48 | 24.55614 | -81.75691 | 14 ft | 96 kts | 269° |
| 2026-05-05 18:48 | 24.55599 | -81.76677 | 127 ft | 146 kts | 266° |
| 2026-05-05 18:49 | 24.55600 | -81.77761 | 839 ft | 143 kts | 280° |
| 2026-05-05 18:49 | 24.56096 | -81.78693 | 1454 ft | 143 kts | 320° |
| 2026-05-05 18:49 | 24.57001 | -81.79112 | 1970 ft | 142 kts | 352° |
| 2026-05-05 18:49 | 24.57975 | -81.79275 | 2456 ft | 141 kts | 350° |
| 2026-05-05 18:50 | 24.58942 | -81.79445 | 2941 ft | 141 kts | 351° |
| 2026-05-05 18:50 | 24.59938 | -81.79619 | 3433 ft | 152 kts | 348° |
| 2026-05-05 18:50 | 24.61059 | -81.79823 | 3679 ft | 173 kts | 348° |
| 2026-05-05 18:50 | 24.62322 | -81.80055 | 3928 ft | 196 kts | 348° |
| 2026-05-05 18:51 | 24.63758 | -81.80265 | 4140 ft | 224 kts | 358° |
| 2026-05-05 18:51 | 24.65359 | -81.79758 | 4468 ft | 254 kts | 30° |
| 2026-05-05 18:51 | 24.66719 | -81.78372 | 4956 ft | 277 kts | 46° |
| 2026-05-05 18:51 | 24.68036 | -81.76790 | 5746 ft | 284 kts | 46° |
| 2026-05-05 18:52 | 24.69381 | -81.75173 | 6579 ft | 289 kts | 45° |
| 2026-05-05 18:52 | 24.70752 | -81.73530 | 7370 ft | 294 kts | 45° |
| 2026-05-05 18:52 | 24.72148 | -81.71863 | 8172 ft | 298 kts | 45° |
| 2026-05-05 18:52 | 24.73572 | -81.70183 | 8965 ft | 302 kts | 44° |
| 2026-05-05 18:53 | 24.75027 | -81.68487 | 9745 ft | 307 kts | 44° |
| 2026-05-05 18:53 | 24.76510 | -81.66766 | 10288 ft | 319 kts | 44° |
| 2026-05-05 18:53 | 24.78094 | -81.64932 | 10493 ft | 342 kts | 44° |
| 2026-05-05 18:53 | 24.79769 | -81.62988 | 10859 ft | 355 kts | 44° |
| 2026-05-05 18:54 | 24.81478 | -81.60995 | 11453 ft | 360 kts | 44° |
| 2026-05-05 18:54 | 24.83208 | -81.58976 | 12097 ft | 364 kts | 44° |
| 2026-05-05 18:54 | 24.84982 | -81.56970 | 12740 ft | 367 kts | 42° |
| 2026-05-05 18:54 | 24.86809 | -81.54987 | 13377 ft | 370 kts | 41° |
| 2026-05-05 18:55 | 24.88670 | -81.53008 | 13985 ft | 374 kts | 41° |
| 2026-05-05 18:55 | 24.90554 | -81.51015 | 14551 ft | 376 kts | 40° |
| 2026-05-05 18:55 | 24.92441 | -81.49012 | 15128 ft | 378 kts | 40° |
| 2026-05-05 18:55 | 24.94334 | -81.46986 | 15697 ft | 380 kts | 40° |
| 2026-05-05 18:56 | 24.96235 | -81.44943 | 16273 ft | 382 kts | 40° |
| 2026-05-05 18:56 | 24.98141 | -81.42886 | 16854 ft | 384 kts | 40° |
| 2026-05-05 18:56 | 25.00053 | -81.40814 | 17405 ft | 386 kts | 40° |
| 2026-05-05 18:56 | 25.01974 | -81.38733 | 17966 ft | 389 kts | 40° |
| 2026-05-05 18:57 | 25.03909 | -81.36638 | 18493 ft | 391 kts | 40° |
| 2026-05-05 18:57 | 25.05856 | -81.34532 | 18940 ft | 394 kts | 40° |
| 2026-05-05 18:57 | 25.07819 | -81.32408 | 19392 ft | 397 kts | 39° |
| 2026-05-05 18:57 | 25.09801 | -81.30263 | 19824 ft | 401 kts | 39° |
| 2026-05-05 18:58 | 25.11801 | -81.28098 | 20262 ft | 405 kts | 39° |
| 2026-05-05 18:58 | 25.13823 | -81.25911 | 20681 ft | 408 kts | 39° |
| 2026-05-05 18:58 | 25.15886 | -81.23679 | 21113 ft | 412 kts | 39° |
| 2026-05-05 18:58 | 25.17914 | -81.21485 | 21529 ft | 415 kts | 39° |
| 2026-05-05 18:59 | 25.20013 | -81.19208 | 21943 ft | 419 kts | 39° |
| 2026-05-05 18:59 | 25.22098 | -81.16945 | 22352 ft | 422 kts | 39° |
| 2026-05-05 18:59 | 25.24201 | -81.14659 | 22755 ft | 426 kts | 39° |
| 2026-05-05 18:59 | 25.26316 | -81.12357 | 23136 ft | 429 kts | 39° |
| 2026-05-05 19:00 | 25.28452 | -81.10034 | 23520 ft | 432 kts | 39° |
| 2026-05-05 19:00 | 25.30600 | -81.07698 | 23848 ft | 435 kts | 39° |
| 2026-05-05 19:00 | 25.32759 | -81.05351 | 24183 ft | 437 kts | 39° |
| 2026-05-05 19:00 | 25.35013 | -81.03112 | 24527 ft | 433 kts | 31° |
| 2026-05-05 19:01 | 25.37552 | -81.01372 | 24873 ft | 427 kts | 20° |
| 2026-05-05 19:01 | 25.40302 | -81.00199 | 25226 ft | 421 kts | 10° |
| 2026-05-05 19:01 | 25.43156 | -80.99603 | 25573 ft | 415 kts | 0° |
| 2026-05-05 19:01 | 25.46034 | -80.99454 | 25923 ft | 414 kts | 357° |
| 2026-05-05 19:02 | 25.48923 | -80.99335 | 26269 ft | 416 kts | 357° |
| 2026-05-05 19:02 | 25.51817 | -80.99210 | 26613 ft | 417 kts | 357° |
| 2026-05-05 19:02 | 25.54729 | -80.99080 | 26952 ft | 419 kts | 357° |
| 2026-05-05 19:02 | 25.57646 | -80.98950 | 27294 ft | 421 kts | 357° |
| 2026-05-05 19:03 | 25.60576 | -80.98821 | 27632 ft | 422 kts | 357° |
| 2026-05-05 19:03 | 25.63516 | -80.98693 | 27970 ft | 424 kts | 357° |
| 2026-05-05 19:03 | 25.66465 | -80.98565 | 28304 ft | 425 kts | 357° |
| 2026-05-05 19:03 | 25.69427 | -80.98438 | 28674 ft | 427 kts | 357° |
| 2026-05-05 19:04 | 25.72399 | -80.98310 | 29001 ft | 428 kts | 357° |
| 2026-05-05 19:04 | 25.75385 | -80.98180 | 29332 ft | 430 kts | 357° |
| 2026-05-05 19:04 | 25.78375 | -80.98053 | 29654 ft | 431 kts | 357° |
| 2026-05-05 19:04 | 25.81380 | -80.97926 | 29970 ft | 433 kts | 357° |
| 2026-05-05 19:05 | 25.84397 | -80.97797 | 30251 ft | 434 kts | 357° |
| 2026-05-05 19:05 | 25.87420 | -80.97667 | 30530 ft | 435 kts | 357° |
| 2026-05-05 19:05 | 25.90450 | -80.97535 | 30814 ft | 436 kts | 357° |
| 2026-05-05 19:05 | 25.93485 | -80.97400 | 31099 ft | 437 kts | 357° |
| 2026-05-05 19:06 | 25.96523 | -80.97267 | 31424 ft | 436 kts | 357° |
| 2026-05-05 19:06 | 25.99582 | -80.97133 | 31885 ft | 433 kts | 356° |
| 2026-05-05 19:06 | 26.02577 | -80.96999 | 32347 ft | 429 kts | 356° |
| 2026-05-05 19:06 | 26.05550 | -80.96866 | 32798 ft | 426 kts | 356° |
| 2026-05-05 19:07 | 26.08501 | -80.96736 | 33234 ft | 423 kts | 356° |
| 2026-05-05 19:07 | 26.10451 | -80.96652 | 33530 ft | 421 kts | 356° |
| 2026-05-05 19:07 | 26.14353 | -80.96486 | 34115 ft | 418 kts | 356° |
| 2026-05-05 19:07 | 26.17248 | -80.96364 | 34498 ft | 415 kts | 356° |
| 2026-05-05 19:08 | 26.20128 | -80.96241 | 34871 ft | 413 kts | 356° |
| 2026-05-05 19:08 | 26.22998 | -80.96120 | 35228 ft | 412 kts | 356° |
| 2026-05-05 19:08 | 26.25853 | -80.95998 | 35576 ft | 410 kts | 356° |
| 2026-05-05 19:08 | 26.28695 | -80.95873 | 35927 ft | 409 kts | 355° |
| 2026-05-05 19:09 | 26.34358 | -80.95625 | 36030 ft | 405 kts | 355° |
| 2026-05-05 19:09 | 26.39985 | -80.95380 | 36029 ft | 405 kts | 355° |
| 2026-05-05 19:10 | 26.45619 | -80.94991 | 36018 ft | 407 kts | 358° |
| 2026-05-05 19:10 | 26.51263 | -80.94335 | 36036 ft | 408 kts | 359° |
| 2026-05-05 19:11 | 26.56902 | -80.93652 | 36035 ft | 408 kts | 359° |
| 2026-05-05 19:11 | 26.62541 | -80.93018 | 36055 ft | 407 kts | 358° |
| 2026-05-05 19:12 | 26.67263 | -80.92514 | 36051 ft | 407 kts | 358° |
| 2026-05-05 19:12 | 26.72902 | -80.91910 | 36047 ft | 407 kts | 358° |
| 2026-05-05 19:13 | 26.78536 | -80.91295 | 36049 ft | 407 kts | 358° |
| 2026-05-05 19:13 | 26.84170 | -80.90672 | 36068 ft | 407 kts | 358° |
| 2026-05-05 19:14 | 26.89796 | -80.90055 | 36093 ft | 406 kts | 358° |
| 2026-05-05 19:14 | 26.95414 | -80.89448 | 36082 ft | 405 kts | 358° |
| 2026-05-05 19:15 | 27.01025 | -80.88842 | 36071 ft | 405 kts | 358° |
| 2026-05-05 19:15 | 27.06631 | -80.88224 | 36066 ft | 405 kts | 358° |
| 2026-05-05 19:16 | 27.12236 | -80.87612 | 36061 ft | 404 kts | 358° |
| 2026-05-05 19:16 | 27.17837 | -80.87005 | 36076 ft | 404 kts | 357° |
| 2026-05-05 19:17 | 27.23480 | -80.86382 | 36071 ft | 404 kts | 357° |
| 2026-05-05 19:17 | 27.29073 | -80.85766 | 36065 ft | 404 kts | 357° |
| 2026-05-05 19:18 | 27.34568 | -80.85979 | 36057 ft | 390 kts | 343° |
| 2026-05-05 19:18 | 27.39924 | -80.87001 | 36060 ft | 390 kts | 344° |
| 2026-05-05 19:19 | 27.45277 | -80.88014 | 36073 ft | 390 kts | 344° |
| 2026-05-05 19:19 | 27.50636 | -80.89023 | 36069 ft | 390 kts | 344° |
| 2026-05-05 19:20 | 27.55995 | -80.90035 | 36071 ft | 390 kts | 344° |
| 2026-05-05 19:20 | 27.61353 | -80.91055 | 36055 ft | 391 kts | 344° |
| 2026-05-05 19:21 | 27.66713 | -80.92075 | 36051 ft | 391 kts | 344° |
| 2026-05-05 19:21 | 27.72083 | -80.93097 | 36056 ft | 392 kts | 344° |
| 2026-05-05 19:22 | 27.77465 | -80.94117 | 36081 ft | 392 kts | 343° |
| 2026-05-05 19:22 | 27.82840 | -80.95141 | 36082 ft | 392 kts | 343° |
| 2026-05-05 19:23 | 27.88206 | -80.96179 | 36080 ft | 391 kts | 343° |
| 2026-05-05 19:23 | 27.93568 | -80.97223 | 36083 ft | 391 kts | 343° |
| 2026-05-05 19:24 | 27.98967 | -80.98269 | 36081 ft | 391 kts | 343° |
| 2026-05-05 19:24 | 28.04330 | -80.99310 | 36090 ft | 391 kts | 343° |
| 2026-05-05 19:25 | 28.09691 | -81.00347 | 36121 ft | 391 kts | 343° |
| 2026-05-05 19:25 | 28.15048 | -81.01386 | 36108 ft | 390 kts | 343° |
| 2026-05-05 19:26 | 28.20391 | -81.02432 | 36099 ft | 390 kts | 343° |
| 2026-05-05 19:26 | 28.25731 | -81.03483 | 36095 ft | 389 kts | 343° |
| 2026-05-05 19:27 | 28.31070 | -81.04525 | 36092 ft | 389 kts | 343° |
| 2026-05-05 19:27 | 28.36397 | -81.05626 | 36090 ft | 385 kts | 338° |
| 2026-05-05 19:28 | 28.41380 | -81.07681 | 36106 ft | 381 kts | 333° |
| 2026-05-05 19:28 | 28.46327 | -81.09820 | 36101 ft | 380 kts | 334° |
| 2026-05-05 19:29 | 28.51272 | -81.11954 | 36099 ft | 380 kts | 334° |
| 2026-05-05 19:29 | 28.56213 | -81.14088 | 36096 ft | 380 kts | 334° |
| 2026-05-05 19:30 | 28.61153 | -81.16225 | 36096 ft | 380 kts | 333° |
| 2026-05-05 19:30 | 28.66100 | -81.18364 | 36094 ft | 380 kts | 334° |
| 2026-05-05 19:31 | 28.71070 | -81.20516 | 36121 ft | 379 kts | 333° |
| 2026-05-05 19:31 | 28.75997 | -81.22656 | 36112 ft | 379 kts | 333° |
| 2026-05-05 19:32 | 28.80918 | -81.24802 | 36102 ft | 379 kts | 333° |
| 2026-05-05 19:32 | 28.85837 | -81.26949 | 36109 ft | 378 kts | 333° |
| 2026-05-05 19:33 | 28.90781 | -81.29043 | 36094 ft | 382 kts | 338° |
| 2026-05-05 19:33 | 28.96142 | -81.29819 | 36097 ft | 393 kts | 348° |
| 2026-05-05 19:34 | 29.01593 | -81.30241 | 36122 ft | 393 kts | 347° |
| 2026-05-05 19:35 | 29.09771 | -81.30881 | 36116 ft | 392 kts | 347° |
| 2026-05-05 19:35 | 29.15221 | -81.31316 | 36113 ft | 392 kts | 347° |
| 2026-05-05 19:36 | 29.20667 | -81.31756 | 36110 ft | 392 kts | 347° |
| 2026-05-05 19:36 | 29.26116 | -81.32191 | 36145 ft | 393 kts | 347° |
| 2026-05-05 19:37 | 29.31567 | -81.32586 | 36136 ft | 393 kts | 348° |
| 2026-05-05 19:37 | 29.37033 | -81.32893 | 36131 ft | 393 kts | 348° |
| 2026-05-05 19:38 | 29.42498 | -81.33187 | 36128 ft | 393 kts | 348° |
| 2026-05-05 19:38 | 29.47957 | -81.33504 | 36125 ft | 393 kts | 348° |
| 2026-05-05 19:39 | 29.53420 | -81.33827 | 36119 ft | 393 kts | 348° |
| 2026-05-05 19:39 | 29.58908 | -81.34153 | 36147 ft | 392 kts | 348° |
| 2026-05-05 19:40 | 29.64357 | -81.34475 | 36143 ft | 392 kts | 348° |
| 2026-05-05 19:40 | 29.69807 | -81.34798 | 36140 ft | 392 kts | 348° |
| 2026-05-05 19:41 | 29.75249 | -81.35119 | 36138 ft | 392 kts | 348° |
| 2026-05-05 19:41 | 29.80696 | -81.35438 | 36138 ft | 392 kts | 348° |
| 2026-05-05 19:42 | 29.86138 | -81.35759 | 36162 ft | 392 kts | 348° |
| 2026-05-05 19:42 | 29.91578 | -81.36083 | 36154 ft | 391 kts | 348° |
| 2026-05-05 19:43 | 29.97014 | -81.36408 | 36146 ft | 391 kts | 348° |
| 2026-05-05 19:43 | 30.02447 | -81.36738 | 36140 ft | 391 kts | 348° |
| 2026-05-05 19:44 | 30.07878 | -81.37062 | 36142 ft | 391 kts | 348° |
| 2026-05-05 19:44 | 30.13311 | -81.37384 | 36151 ft | 391 kts | 348° |
| 2026-05-05 19:45 | 30.18731 | -81.37708 | 36140 ft | 390 kts | 348° |
| 2026-05-05 19:45 | 30.23272 | -81.37978 | 36131 ft | 390 kts | 348° |
| 2026-05-05 19:46 | 30.28697 | -81.38300 | 36121 ft | 390 kts | 348° |
| 2026-05-05 19:46 | 30.34121 | -81.38627 | 36120 ft | 390 kts | 348° |
| 2026-05-05 19:47 | 30.39542 | -81.38957 | 36119 ft | 390 kts | 348° |
| 2026-05-05 19:47 | 30.44973 | -81.39276 | 36118 ft | 390 kts | 348° |
| 2026-05-05 19:48 | 30.50400 | -81.39585 | 36115 ft | 391 kts | 348° |
| 2026-05-05 19:48 | 30.55832 | -81.39875 | 36115 ft | 391 kts | 348° |
| 2026-05-05 19:49 | 30.61264 | -81.40157 | 36118 ft | 391 kts | 348° |
| 2026-05-05 19:49 | 30.66697 | -81.40444 | 36118 ft | 391 kts | 348° |
| 2026-05-05 19:50 | 30.72131 | -81.40729 | 36134 ft | 391 kts | 348° |
| 2026-05-05 19:50 | 30.77602 | -81.41017 | 36124 ft | 391 kts | 348° |
| 2026-05-05 19:51 | 30.83036 | -81.41302 | 36118 ft | 391 kts | 348° |
| 2026-05-05 19:51 | 30.88472 | -81.41591 | 36111 ft | 391 kts | 348° |
| 2026-05-05 19:52 | 30.93899 | -81.41881 | 36108 ft | 391 kts | 348° |
| 2026-05-05 19:52 | 30.99338 | -81.42167 | 36127 ft | 391 kts | 348° |
| 2026-05-05 19:53 | 31.04769 | -81.42461 | 36121 ft | 391 kts | 348° |
| 2026-05-05 19:53 | 31.10215 | -81.42755 | 36111 ft | 391 kts | 348° |
| 2026-05-05 19:54 | 31.15658 | -81.43045 | 36105 ft | 392 kts | 348° |
| 2026-05-05 19:54 | 31.21104 | -81.43330 | 36115 ft | 392 kts | 348° |
| 2026-05-05 19:55 | 31.26628 | -81.42672 | 36142 ft | 415 kts | 7° |
| 2026-05-05 19:55 | 31.29348 | -81.41371 | 36131 ft | 427 kts | 14° |
| 2026-05-05 19:55 | 31.32036 | -81.39902 | 36121 ft | 427 kts | 14° |
| 2026-05-05 19:56 | 31.37427 | -81.36954 | 36109 ft | 428 kts | 14° |
| 2026-05-05 19:56 | 31.42822 | -81.34015 | 36103 ft | 428 kts | 14° |
| 2026-05-05 19:57 | 31.48233 | -81.31089 | 36096 ft | 428 kts | 14° |
| 2026-05-05 19:57 | 31.53640 | -81.28156 | 36128 ft | 429 kts | 14° |
| 2026-05-05 19:58 | 31.59086 | -81.25191 | 36111 ft | 428 kts | 14° |
| 2026-05-05 19:58 | 31.64490 | -81.22239 | 36105 ft | 428 kts | 14° |
| 2026-05-05 19:59 | 31.69885 | -81.19287 | 36098 ft | 428 kts | 14° |
| 2026-05-05 19:59 | 31.75289 | -81.16336 | 36094 ft | 428 kts | 14° |
| 2026-05-05 20:00 | 31.80688 | -81.13381 | 36111 ft | 428 kts | 13° |
| 2026-05-05 20:00 | 31.86084 | -81.10422 | 36104 ft | 428 kts | 13° |
| 2026-05-05 20:01 | 31.91473 | -81.07464 | 36101 ft | 427 kts | 13° |
| 2026-05-05 20:01 | 31.96865 | -81.04507 | 36096 ft | 428 kts | 13° |
| 2026-05-05 20:02 | 32.02251 | -81.01530 | 36093 ft | 428 kts | 14° |
| 2026-05-05 20:02 | 32.07633 | -80.98524 | 36114 ft | 427 kts | 14° |
| 2026-05-05 20:03 | 32.13038 | -80.95489 | 36104 ft | 427 kts | 14° |
| 2026-05-05 20:03 | 32.18413 | -80.92472 | 36196 ft | 428 kts | 14° |
| 2026-05-05 20:03 | 32.21103 | -80.90964 | 36448 ft | 428 kts | 14° |
| 2026-05-05 20:04 | 32.23789 | -80.89456 | 36779 ft | 426 kts | 14° |
| 2026-05-05 20:04 | 32.26463 | -80.87953 | 37066 ft | 426 kts | 14° |
| 2026-05-05 20:04 | 32.29132 | -80.86451 | 37154 ft | 425 kts | 14° |
| 2026-05-05 20:05 | 32.34455 | -80.83449 | 37131 ft | 423 kts | 14° |
| 2026-05-05 20:05 | 32.39774 | -80.80454 | 37126 ft | 423 kts | 14° |
| 2026-05-05 20:06 | 32.45091 | -80.77458 | 37130 ft | 423 kts | 14° |
| 2026-05-05 20:06 | 32.50407 | -80.74462 | 37138 ft | 423 kts | 14° |
| 2026-05-05 20:07 | 32.55727 | -80.71450 | 37143 ft | 424 kts | 14° |
| 2026-05-05 20:07 | 32.61042 | -80.68430 | 37127 ft | 424 kts | 14° |
| 2026-05-05 20:08 | 32.66361 | -80.65409 | 37125 ft | 424 kts | 14° |
| 2026-05-05 20:08 | 32.71685 | -80.62389 | 37112 ft | 424 kts | 14° |
| 2026-05-05 20:09 | 32.76986 | -80.59292 | 37104 ft | 425 kts | 15° |
| 2026-05-05 20:09 | 32.82273 | -80.56125 | 37126 ft | 426 kts | 15° |
| 2026-05-05 20:10 | 32.87557 | -80.52954 | 37133 ft | 425 kts | 16° |
| 2026-05-05 20:10 | 32.92875 | -80.49784 | 37120 ft | 424 kts | 15° |
| 2026-05-05 20:11 | 32.98152 | -80.46643 | 37114 ft | 424 kts | 15° |
| 2026-05-05 20:11 | 33.03426 | -80.43493 | 37106 ft | 424 kts | 15° |
| 2026-05-05 20:12 | 33.08697 | -80.40344 | 37093 ft | 424 kts | 15° |
| 2026-05-05 20:12 | 33.13972 | -80.37195 | 37093 ft | 424 kts | 15° |
| 2026-05-05 20:13 | 33.19236 | -80.34041 | 37088 ft | 424 kts | 16° |
| 2026-05-05 20:13 | 33.24502 | -80.30874 | 37090 ft | 424 kts | 16° |
| 2026-05-05 20:14 | 33.29771 | -80.27702 | 37107 ft | 424 kts | 16° |
| 2026-05-05 20:14 | 33.35035 | -80.24535 | 37121 ft | 423 kts | 16° |
| 2026-05-05 20:15 | 33.40289 | -80.21371 | 37116 ft | 423 kts | 16° |
| 2026-05-05 20:15 | 33.45536 | -80.18201 | 37114 ft | 422 kts | 16° |
| 2026-05-05 20:16 | 33.50778 | -80.15027 | 37131 ft | 422 kts | 16° |
| 2026-05-05 20:16 | 33.55165 | -80.12375 | 37123 ft | 421 kts | 16° |
| 2026-05-05 20:17 | 33.60375 | -80.09222 | 37108 ft | 418 kts | 16° |
| 2026-05-05 20:17 | 33.65457 | -80.05732 | 37091 ft | 432 kts | 27° |
| 2026-05-05 20:18 | 33.70064 | -80.00971 | 37086 ft | 438 kts | 30° |
| 2026-05-05 20:18 | 33.74646 | -79.96150 | 37088 ft | 438 kts | 30° |
| 2026-05-05 20:19 | 33.79226 | -79.91320 | 37090 ft | 438 kts | 30° |
| 2026-05-05 20:19 | 33.83811 | -79.86496 | 37112 ft | 438 kts | 30° |
| 2026-05-05 20:20 | 33.88392 | -79.81675 | 37102 ft | 437 kts | 30° |
| 2026-05-05 20:20 | 33.92966 | -79.76853 | 37114 ft | 437 kts | 31° |
| 2026-05-05 20:21 | 33.97538 | -79.72022 | 37107 ft | 437 kts | 31° |
| 2026-05-05 20:21 | 34.02107 | -79.67194 | 37105 ft | 437 kts | 31° |
| 2026-05-05 20:22 | 34.06704 | -79.62337 | 37120 ft | 437 kts | 31° |
| 2026-05-05 20:22 | 34.11268 | -79.57492 | 37105 ft | 437 kts | 31° |
| 2026-05-05 20:23 | 34.15828 | -79.52645 | 37096 ft | 437 kts | 31° |
| 2026-05-05 20:23 | 34.20388 | -79.47794 | 37100 ft | 437 kts | 31° |
| 2026-05-05 20:24 | 34.24946 | -79.42940 | 37088 ft | 437 kts | 31° |
| 2026-05-05 20:24 | 34.29503 | -79.38077 | 37095 ft | 437 kts | 31° |
| 2026-05-05 20:25 | 34.34051 | -79.33211 | 37084 ft | 436 kts | 31° |
| 2026-05-05 20:25 | 34.38604 | -79.28340 | 37081 ft | 437 kts | 31° |
| 2026-05-05 20:26 | 34.43253 | -79.23686 | 37082 ft | 425 kts | 22° |
| 2026-05-05 20:26 | 34.48413 | -79.20410 | 37071 ft | 418 kts | 17° |
| 2026-05-05 20:27 | 34.53607 | -79.17250 | 37090 ft | 418 kts | 17° |
| 2026-05-05 20:27 | 34.58800 | -79.14070 | 37082 ft | 418 kts | 17° |
| 2026-05-05 20:28 | 34.63994 | -79.10882 | 37076 ft | 418 kts | 17° |
| 2026-05-05 20:28 | 34.69221 | -79.07670 | 37075 ft | 418 kts | 17° |
| 2026-05-05 20:29 | 34.74417 | -79.04482 | 37092 ft | 418 kts | 18° |
| 2026-05-05 20:29 | 34.79616 | -79.01289 | 37103 ft | 419 kts | 18° |
| 2026-05-05 20:30 | 34.84816 | -78.98093 | 37082 ft | 419 kts | 18° |
| 2026-05-05 20:30 | 34.90013 | -78.94887 | 37075 ft | 419 kts | 18° |
| 2026-05-05 20:31 | 34.95209 | -78.91673 | 37072 ft | 419 kts | 18° |
| 2026-05-05 20:31 | 35.00409 | -78.88453 | 37087 ft | 419 kts | 18° |
| 2026-05-05 20:32 | 35.05603 | -78.85232 | 37079 ft | 419 kts | 18° |
| 2026-05-05 20:32 | 35.10801 | -78.82014 | 37047 ft | 419 kts | 18° |
| 2026-05-05 20:33 | 35.16001 | -78.78794 | 37060 ft | 419 kts | 18° |
| 2026-05-05 20:33 | 35.21187 | -78.75558 | 37060 ft | 419 kts | 18° |
| 2026-05-05 20:34 | 35.26380 | -78.72320 | 37094 ft | 419 kts | 18° |
| 2026-05-05 20:34 | 35.31579 | -78.69087 | 37083 ft | 419 kts | 18° |
| 2026-05-05 20:35 | 35.36777 | -78.65844 | 37086 ft | 419 kts | 19° |
| 2026-05-05 20:35 | 35.41974 | -78.62589 | 37079 ft | 419 kts | 19° |
| 2026-05-05 20:36 | 35.47204 | -78.59308 | 37071 ft | 420 kts | 19° |
| 2026-05-05 20:36 | 35.52404 | -78.56048 | 37047 ft | 420 kts | 19° |
| 2026-05-05 20:37 | 35.57605 | -78.52785 | 37042 ft | 420 kts | 19° |
| 2026-05-05 20:37 | 35.62807 | -78.49511 | 37044 ft | 420 kts | 19° |
| 2026-05-05 20:38 | 35.68002 | -78.46223 | 37042 ft | 420 kts | 19° |
| 2026-05-05 20:38 | 35.73203 | -78.42931 | 37069 ft | 420 kts | 19° |
| 2026-05-05 20:39 | 35.78403 | -78.39656 | 37065 ft | 420 kts | 18° |
| 2026-05-05 20:39 | 35.83607 | -78.36370 | 37066 ft | 420 kts | 19° |
| 2026-05-05 20:40 | 35.88806 | -78.33080 | 37068 ft | 420 kts | 19° |
| 2026-05-05 20:40 | 35.94006 | -78.29791 | 37077 ft | 420 kts | 18° |
| 2026-05-05 20:41 | 35.99212 | -78.26484 | 37071 ft | 421 kts | 18° |
| 2026-05-05 20:41 | 36.04415 | -78.23176 | 37064 ft | 421 kts | 19° |
| 2026-05-05 20:42 | 36.09616 | -78.19864 | 37064 ft | 421 kts | 19° |
| 2026-05-05 20:42 | 36.14824 | -78.16546 | 37057 ft | 421 kts | 19° |
| 2026-05-05 20:43 | 36.20032 | -78.13219 | 37071 ft | 421 kts | 18° |
| 2026-05-05 20:43 | 36.25277 | -78.09859 | 37056 ft | 422 kts | 18° |
| 2026-05-05 20:44 | 36.30491 | -78.06521 | 37050 ft | 422 kts | 18° |
| 2026-05-05 20:44 | 36.35711 | -78.03174 | 37039 ft | 422 kts | 18° |
| 2026-05-05 20:45 | 36.43740 | -77.99047 | 37033 ft | 415 kts | 12° |
| 2026-05-05 20:45 | 36.49149 | -77.96539 | 37029 ft | 416 kts | 12° |
| 2026-05-05 20:46 | 36.54572 | -77.94024 | 37034 ft | 416 kts | 12° |
| 2026-05-05 20:46 | 36.60001 | -77.91493 | 37059 ft | 417 kts | 12° |
| 2026-05-05 20:47 | 36.65434 | -77.88957 | 37071 ft | 417 kts | 12° |
| 2026-05-05 20:47 | 36.70875 | -77.86411 | 37065 ft | 418 kts | 12° |
| 2026-05-05 20:48 | 36.76320 | -77.83860 | 37045 ft | 418 kts | 12° |
| 2026-05-05 20:48 | 36.81790 | -77.81294 | 36852 ft | 427 kts | 12° |
| 2026-05-05 20:49 | 36.84606 | -77.79982 | 36579 ft | 436 kts | 12° |
| 2026-05-05 20:49 | 36.87468 | -77.78646 | 36327 ft | 441 kts | 12° |
| 2026-05-05 20:49 | 36.90348 | -77.77293 | 36025 ft | 443 kts | 12° |
| 2026-05-05 20:49 | 36.93242 | -77.75929 | 35254 ft | 446 kts | 12° |
| 2026-05-05 20:50 | 36.96128 | -77.74561 | 34864 ft | 440 kts | 12° |
| 2026-05-05 20:50 | 36.98051 | -77.73647 | 34465 ft | 439 kts | 12° |
| 2026-05-05 20:50 | 37.00901 | -77.72292 | 33782 ft | 438 kts | 12° |
| 2026-05-05 20:50 | 37.03753 | -77.70940 | 33024 ft | 438 kts | 12° |
| 2026-05-05 20:51 | 37.06620 | -77.69581 | 32051 ft | 443 kts | 13° |
| 2026-05-05 20:51 | 37.09520 | -77.68212 | 31211 ft | 447 kts | 14° |
| 2026-05-05 20:51 | 37.12416 | -77.66841 | 30690 ft | 442 kts | 15° |
| 2026-05-05 20:51 | 37.15285 | -77.65475 | 30132 ft | 439 kts | 15° |
| 2026-05-05 20:52 | 37.18130 | -77.64120 | 29523 ft | 436 kts | 16° |
| 2026-05-05 20:52 | 37.20952 | -77.62779 | 28974 ft | 431 kts | 16° |
| 2026-05-05 20:52 | 37.23748 | -77.61454 | 28430 ft | 427 kts | 16° |
| 2026-05-05 20:52 | 37.26517 | -77.60144 | 27897 ft | 424 kts | 16° |
| 2026-05-05 20:53 | 37.29262 | -77.58844 | 27358 ft | 420 kts | 17° |
| 2026-05-05 20:53 | 37.31986 | -77.57551 | 26838 ft | 417 kts | 17° |
| 2026-05-05 20:53 | 37.34692 | -77.56265 | 26320 ft | 414 kts | 17° |
| 2026-05-05 20:53 | 37.37377 | -77.54987 | 25815 ft | 412 kts | 17° |
| 2026-05-05 20:54 | 37.40051 | -77.53713 | 25323 ft | 410 kts | 17° |
| 2026-05-05 20:54 | 37.42705 | -77.52445 | 24840 ft | 408 kts | 18° |
| 2026-05-05 20:54 | 37.45361 | -77.51175 | 24367 ft | 407 kts | 18° |
| 2026-05-05 20:54 | 37.47999 | -77.49911 | 23906 ft | 406 kts | 18° |
| 2026-05-05 20:55 | 37.50633 | -77.48645 | 23424 ft | 404 kts | 18° |
| 2026-05-05 20:55 | 37.53257 | -77.47386 | 22944 ft | 403 kts | 18° |
| 2026-05-05 20:55 | 37.55944 | -77.46096 | 22453 ft | 410 kts | 18° |
| 2026-05-05 20:55 | 37.58615 | -77.44849 | 21974 ft | 408 kts | 14° |
| 2026-05-05 20:56 | 37.61344 | -77.43972 | 21577 ft | 403 kts | 10° |
| 2026-05-05 20:56 | 37.64062 | -77.43149 | 21181 ft | 401 kts | 11° |
| 2026-05-05 20:56 | 37.66769 | -77.42319 | 20792 ft | 399 kts | 11° |
| 2026-05-05 20:56 | 37.69452 | -77.41487 | 20400 ft | 396 kts | 10° |
| 2026-05-05 20:57 | 37.72120 | -77.40657 | 20019 ft | 394 kts | 11° |
| 2026-05-05 20:57 | 37.74771 | -77.39830 | 19627 ft | 391 kts | 10° |
| 2026-05-05 20:57 | 37.77409 | -77.39012 | 19242 ft | 389 kts | 10° |
| 2026-05-05 20:57 | 37.80027 | -77.38203 | 18860 ft | 386 kts | 10° |
| 2026-05-05 20:58 | 37.82630 | -77.37402 | 18479 ft | 384 kts | 10° |
| 2026-05-05 20:58 | 37.85216 | -77.36605 | 18081 ft | 381 kts | 10° |
| 2026-05-05 20:58 | 37.87778 | -77.35812 | 17772 ft | 379 kts | 10° |
| 2026-05-05 20:58 | 37.90340 | -77.35016 | 17432 ft | 378 kts | 10° |
| 2026-05-05 20:59 | 37.92890 | -77.34227 | 17054 ft | 376 kts | 10° |
| 2026-05-05 20:59 | 37.95429 | -77.33447 | 16694 ft | 375 kts | 10° |
| 2026-05-05 20:59 | 37.97955 | -77.32671 | 16310 ft | 373 kts | 9° |
| 2026-05-05 20:59 | 38.00476 | -77.31899 | 15933 ft | 372 kts | 9° |
| 2026-05-05 21:00 | 38.02986 | -77.31131 | 15561 ft | 370 kts | 9° |
| 2026-05-05 21:00 | 38.05480 | -77.30361 | 15189 ft | 369 kts | 9° |
| 2026-05-05 21:00 | 38.07971 | -77.29586 | 14822 ft | 368 kts | 9° |
| 2026-05-05 21:00 | 38.10455 | -77.28812 | 14460 ft | 366 kts | 9° |
| 2026-05-05 21:01 | 38.12922 | -77.28042 | 14106 ft | 365 kts | 9° |
| 2026-05-05 21:01 | 38.15378 | -77.27266 | 13731 ft | 363 kts | 10° |
| 2026-05-05 21:01 | 38.17825 | -77.26489 | 13346 ft | 362 kts | 9° |
| 2026-05-05 21:01 | 38.20271 | -77.25713 | 13001 ft | 362 kts | 9° |
| 2026-05-05 21:02 | 38.22694 | -77.24879 | 12710 ft | 361 kts | 11° |
| 2026-05-05 21:02 | 38.25137 | -77.23964 | 12421 ft | 361 kts | 12° |
| 2026-05-05 21:02 | 38.27502 | -77.23045 | 12144 ft | 360 kts | 12° |
| 2026-05-05 21:02 | 38.29900 | -77.22106 | 11859 ft | 360 kts | 12° |
| 2026-05-05 21:03 | 38.32329 | -77.21163 | 11582 ft | 359 kts | 12° |
| 2026-05-05 21:03 | 38.34718 | -77.20246 | 11304 ft | 359 kts | 12° |
| 2026-05-05 21:03 | 38.37112 | -77.19330 | 11022 ft | 359 kts | 12° |
| 2026-05-05 21:03 | 38.39504 | -77.18412 | 10901 ft | 359 kts | 12° |
| 2026-05-05 21:04 | 38.41892 | -77.17492 | 10808 ft | 359 kts | 12° |
| 2026-05-05 21:04 | 38.44273 | -77.16575 | 10685 ft | 357 kts | 12° |
| 2026-05-05 21:04 | 38.46649 | -77.15662 | 10569 ft | 356 kts | 12° |
| 2026-05-05 21:04 | 38.49010 | -77.14753 | 10449 ft | 350 kts | 12° |
| 2026-05-05 21:05 | 38.51295 | -77.13861 | 10325 ft | 337 kts | 12° |
| 2026-05-05 21:05 | 38.53499 | -77.12997 | 10202 ft | 326 kts | 12° |
| 2026-05-05 21:05 | 38.55643 | -77.12163 | 10084 ft | 320 kts | 11° |
| 2026-05-05 21:05 | 38.57778 | -77.11339 | 10014 ft | 321 kts | 11° |
| 2026-05-05 21:06 | 38.59925 | -77.10514 | 9682 ft | 322 kts | 11° |
| 2026-05-05 21:06 | 38.62061 | -77.09690 | 9340 ft | 320 kts | 11° |
| 2026-05-05 21:06 | 38.64184 | -77.08869 | 9033 ft | 317 kts | 12° |
| 2026-05-05 21:06 | 38.66289 | -77.08056 | 8699 ft | 315 kts | 12° |
| 2026-05-05 21:07 | 38.68385 | -77.07279 | 8337 ft | 311 kts | 8° |
| 2026-05-05 21:07 | 38.70511 | -77.06932 | 8022 ft | 306 kts | 359° |
| 2026-05-05 21:07 | 38.72635 | -77.06724 | 7713 ft | 306 kts | 359° |
| 2026-05-05 21:07 | 38.74754 | -77.06575 | 7400 ft | 302 kts | 353° |
| 2026-05-05 21:08 | 38.76793 | -77.06989 | 7104 ft | 294 kts | 337° |
| 2026-05-05 21:08 | 38.78641 | -77.08011 | 6809 ft | 286 kts | 322° |
| 2026-05-05 21:08 | 38.80308 | -77.09380 | 6523 ft | 284 kts | 320° |
| 2026-05-05 21:08 | 38.81970 | -77.10751 | 6226 ft | 285 kts | 321° |
| 2026-05-05 21:09 | 38.83569 | -77.12224 | 5908 ft | 280 kts | 311° |
| 2026-05-05 21:09 | 38.84961 | -77.13941 | 5661 ft | 273 kts | 309° |
| 2026-05-05 21:09 | 38.86305 | -77.15609 | 5529 ft | 264 kts | 309° |
| 2026-05-05 21:09 | 38.87612 | -77.17224 | 5411 ft | 249 kts | 309° |
| 2026-05-05 21:10 | 38.88806 | -77.18695 | 5196 ft | 234 kts | 308° |
| 2026-05-05 21:10 | 38.89950 | -77.20112 | 5035 ft | 217 kts | 308° |
| 2026-05-05 21:10 | 38.91003 | -77.21420 | 4703 ft | 209 kts | 308° |
| 2026-05-05 21:10 | 38.92047 | -77.22735 | 4144 ft | 211 kts | 308° |
| 2026-05-05 21:11 | 38.93099 | -77.24062 | 3600 ft | 213 kts | 308° |
| 2026-05-05 21:11 | 38.94157 | -77.25376 | 3251 ft | 209 kts | 309° |
| 2026-05-05 21:11 | 38.95408 | -77.26378 | 3062 ft | 219 kts | 337° |
| 2026-05-05 21:11 | 38.96951 | -77.26406 | 3009 ft | 230 kts | 13° |
| 2026-05-05 21:12 | 38.98289 | -77.25312 | 2966 ft | 231 kts | 52° |
| 2026-05-05 21:12 | 38.98922 | -77.23475 | 2915 ft | 224 kts | 89° |
| 2026-05-05 21:12 | 38.98708 | -77.21583 | 2825 ft | 205 kts | 120° |
| 2026-05-05 21:12 | 38.98128 | -77.19944 | 2711 ft | 199 kts | 123° |
| 2026-05-05 21:13 | 38.97565 | -77.18340 | 2635 ft | 192 kts | 123° |
| 2026-05-05 21:13 | 38.97022 | -77.16786 | 2705 ft | 189 kts | 123° |
| 2026-05-05 21:13 | 38.96394 | -77.15334 | 2709 ft | 182 kts | 136° |
| 2026-05-05 21:13 | 38.95515 | -77.14213 | 2554 ft | 173 kts | 149° |
| 2026-05-05 21:14 | 38.94650 | -77.13251 | 2343 ft | 153 kts | 149° |
| 2026-05-05 21:14 | 38.93898 | -77.12402 | 2135 ft | 137 kts | 153° |
| 2026-05-05 21:14 | 38.93184 | -77.11707 | 1951 ft | 121 kts | 165° |
| 2026-05-05 21:14 | 38.92435 | -77.11230 | 1799 ft | 120 kts | 166° |
| 2026-05-05 21:15 | 38.91693 | -77.10747 | 1657 ft | 118 kts | 163° |
| 2026-05-05 21:15 | 38.91014 | -77.10025 | 1404 ft | 136 kts | 138° |
| 2026-05-05 21:15 | 38.90552 | -77.08919 | 1317 ft | 147 kts | 117° |
| 2026-05-05 21:15 | 38.90254 | -77.07682 | 1090 ft | 138 kts | 127° |
| 2026-05-05 21:16 | 38.89694 | -77.06732 | 928 ft | 131 kts | 142° |
| 2026-05-05 21:16 | 38.89084 | -77.05897 | 766 ft | 128 kts | 140° |
| 2026-05-05 21:16 | 38.88474 | -77.05059 | 585 ft | 126 kts | 139° |
| 2026-05-05 21:16 | 38.87833 | -77.04301 | 389 ft | 124 kts | 157° |
| 2026-05-05 21:17 | 38.87038 | -77.03945 | 220 ft | 121 kts | 176° |
| 2026-05-05 21:17 | 38.86213 | -77.03875 | 92 ft | 119 kts | 179° |
| 2026-05-05 21:17 | 38.85452 | -77.03807 | 27 ft | 95 kts | 176° |
| 2026-05-05 21:17 | 38.85035 | -77.03765 | 24 ft | 46 kts | 175° |
| 2026-05-05 21:18 | 38.84806 | -77.03736 | 24 ft | 28 kts | 173° |
| 2026-05-05 21:18 | 38.84683 | -77.03780 | 26 ft | 18 kts | 217° |
| 2026-05-05 21:18 | 38.84687 | -77.03869 | 26 ft | 12 kts | 336° |
| 2026-05-05 21:18 | 38.84776 | -77.03879 | 24 ft | 14 kts | 356° |
| 2026-05-05 21:19 | 38.84873 | -77.03894 | 24 ft | 9 kts | 327° |
| 2026-05-05 21:19 | 38.84906 | -77.03952 | 24 ft | 10 kts | 349° |
| 2026-05-05 21:19 | 38.84983 | -77.03959 | 24 ft | 13 kts | 355° |
| 2026-05-05 21:19 | 38.85081 | -77.03970 | 26 ft | 15 kts | 355° |
| 2026-05-05 21:20 | 38.85194 | -77.03982 | 24 ft | 17 kts | 356° |
| 2026-05-05 21:20 | 38.85306 | -77.03993 | 24 ft | 13 kts | 355° |
| 2026-05-05 21:20 | 38.85388 | -77.04002 | 24 ft | 12 kts | 357° |
| 2026-05-05 21:20 | 38.85461 | -77.04007 | 24 ft | 9 kts | 355° |
| 2026-05-05 21:21 | 38.85468 | -77.04050 | 24 ft | 6 kts | 244° |
| 2026-05-05 21:21 | 38.85458 | -77.04074 | 24 ft | 3 kts | 242° |
| 2026-05-05 21:21 | 38.85454 | -77.04082 | 26 ft | 0 kts | 241° |